aviador You're here:

YPKG Decoded Metar

KALGOORLIE in AUSTRALIA
Report Time2017-10-23 05:30:00
UTC Time2017-10-23 05:51:38
Flight Rules vfr VFR
Wind260° at 07 kt
W.Decomp.*RWY 29: 6.0 kt HW 3.6 kt LCW
RWY 18: 1.3 kt HW 6.9 kt RCW
W.Rank260° ranks 28
Current wind is below 260° avg. (8.7)
Visibility9999 m
Phenomena:N/A
Clouds:Scattered 071 Hf
Broken 087 Hf
Expected CloudBase > 7,600 ft AGL from Temp-Dew spread
Ceiling8,700 ft
Temp28°C (ISA +15)
Dew Point09°C (30% RH)
Heat Index27.1°C
AAT25.2°C
QNH1011 hPa
Density Alt3,169 ft
Elevation1,181 ft
Report Wrong Elevation
Raw Report
YPKG 230530Z AUTO 26007KT 9999 // SCT071 BKN087 28/09 Q1011=

Extra information for YPKG:More info

Metar Taf Metar & Taf Last 4 Metars F.Rules Stats Wind Profile Meteogram Temp Stats Airport Information Weather charts Add Link Nearby VenuesMetar ALERT Operation Metar Decoded Social comments